Time;durP1;ratioP1;P1;durP2;ratioP2;P2;SDS_P1;SDS_P2;PMS_P1;PMS_P2;Temp;Humidity;BMP_temperature;BMP_pressure;BME280_temperature;BME280_humidity;BME280_pressure;Samples;Min_cycle;Max_cycle;Signal;HPM_P1;HPM_P2
2021/06/10 00:00:15;;;;;;;18.83;14.60;;;15.10;88.70;;;;;;5092302;28;20119;-85
2021/06/10 00:02:41;;;;;;;17.58;14.48;;;15.00;89.20;;;;;;5092604;28;20085;-83
2021/06/10 00:05:08;;;;;;;18.48;14.35;;;15.00;89.40;;;;;;5093284;28;20084;-83
2021/06/10 00:07:34;;;;;;;15.23;13.13;;;15.00;89.30;;;;;;5092116;28;20108;-83
2021/06/10 00:10:00;;;;;;;16.02;13.15;;;15.00;89.30;;;;;;5092146;28;20055;-84
2021/06/10 00:12:26;;;;;;;15.52;13.93;;;15.10;89.20;;;;;;5090910;28;20031;-84
2021/06/10 00:14:51;;;;;;;15.77;12.80;;;15.20;88.80;;;;;;5093493;28;20093;-83
2021/06/10 00:17:18;;;;;;;16.23;13.50;;;15.20;88.30;;;;;;5094423;28;20114;-84
2021/06/10 00:19:44;;;;;;;15.32;12.50;;;15.20;88.10;;;;;;5095936;28;20065;-84
2021/06/10 00:22:10;;;;;;;15.30;13.05;;;15.20;87.80;;;;;;5095942;28;20024;-82
2021/06/10 00:24:36;;;;;;;17.40;13.32;;;15.20;87.70;;;;;;5095765;28;20016;-85
2021/06/10 00:27:03;;;;;;;16.05;13.02;;;15.30;87.70;;;;;;5095995;28;20028;-83
2021/06/10 00:29:29;;;;;;;16.35;13.55;;;15.20;87.30;;;;;;5094296;28;20024;-83
2021/06/10 00:31:54;;;;;;;15.18;12.73;;;15.20;87.10;;;;;;5095736;28;20089;-83
2021/06/10 00:34:20;;;;;;;15.43;13.18;;;15.10;87.60;;;;;;5094365;28;20024;-83
2021/06/10 00:36:45;;;;;;;20.15;13.98;;;15.10;87.70;;;;;;5094301;28;20028;-83
2021/06/10 00:39:11;;;;;;;18.98;14.25;;;15.00;87.90;;;;;;5094199;28;20039;-84
2021/06/10 00:41:39;;;;;;;16.73;14.23;;;15.00;88.10;;;;;;5094245;28;20417;-84
2021/06/10 00:44:08;;;;;;;16.27;13.93;;;15.00;88.10;;;;;;5095516;28;20142;-84
2021/06/10 00:46:34;;;;;;;16.00;13.85;;;14.90;88.10;;;;;;5094068;28;20051;-84
2021/06/10 00:49:00;;;;;;;15.85;14.05;;;14.90;88.20;;;;;;5095686;28;20388;-84
2021/06/10 00:51:26;;;;;;;23.35;14.85;;;14.80;88.20;;;;;;5106780;28;20030;-83
2021/06/10 00:53:52;;;;;;;18.65;14.80;;;14.80;88.40;;;;;;5107317;28;20024;-82
2021/06/10 00:56:18;;;;;;;17.50;14.52;;;14.80;88.50;;;;;;5107508;28;20057;-81
2021/06/10 00:58:43;;;;;;;16.58;14.88;;;14.80;88.50;;;;;;5107755;28;20035;-81
2021/06/10 01:01:09;;;;;;;17.23;14.38;;;14.80;88.80;;;;;;5108082;28;20036;-82
2021/06/10 01:03:38;;;;;;;16.33;14.63;;;14.80;89.10;;;;;;5106962;28;20024;-81
2021/06/10 01:06:13;;;;;;;18.33;15.68;;;14.70;89.30;;;;;;5105915;28;20024;-81
2021/06/10 01:08:56;;;;;;;21.35;15.57;;;14.60;89.50;;;;;;5099244;28;20544;-82
2021/06/10 01:11:57;;;;;;;17.63;15.07;;;14.70;89.50;;;;;;5095079;28;20099;-82
2021/06/10 01:14:29;;;;;;;22.02;15.05;;;14.60;89.40;;;;;;5094898;28;20122;-82
2021/06/10 01:16:56;;;;;;;16.40;14.70;;;14.60;89.60;;;;;;5094699;28;20024;-84
2021/06/10 01:19:40;;;;;;;17.23;15.35;;;14.60;89.50;;;;;;5093285;28;20028;-82
2021/06/10 01:22:11;;;;;;;18.52;16.00;;;14.60;90.30;;;;;;5094670;28;20492;-83
2021/06/10 01:24:46;;;;;;;21.80;15.77;;;14.50;89.70;;;;;;5094390;28;20111;-83
2021/06/10 01:27:29;;;;;;;18.65;15.50;;;14.60;89.80;;;;;;5093755;28;20026;-84
2021/06/10 01:30:03;;;;;;;19.98;16.15;;;14.60;89.90;;;;;;5094702;28;20380;-85
2021/06/10 01:32:30;;;;;;;16.80;14.73;;;14.70;90.00;;;;;;5093052;28;20476;-83
2021/06/10 01:34:57;;;;;;;19.55;15.45;;;14.70;89.30;;;;;;5093244;28;20032;-83
2021/06/10 01:37:25;;;;;;;15.38;13.73;;;14.60;89.00;;;;;;5094432;28;20016;-83
2021/06/10 01:39:52;;;;;;;17.73;15.00;;;14.50;89.20;;;;;;5094228;28;20111;-81
2021/06/10 01:42:18;;;;;;;16.77;14.98;;;14.50;89.30;;;;;;5094097;28;20028;-81
2021/06/10 01:44:47;;;;;;;17.08;13.25;;;14.40;90.20;;;;;;5092800;28;20492;-82
2021/06/10 01:47:19;;;;;;;17.45;15.25;;;14.40;89.50;;;;;;5094024;28;20065;-82
2021/06/10 01:49:45;;;;;;;19.08;15.02;;;14.40;89.30;;;;;;5093812;28;20024;-82
2021/06/10 01:52:11;;;;;;;18.50;15.38;;;14.30;89.40;;;;;;5094101;28;20065;-82
2021/06/10 01:54:38;;;;;;;16.83;14.45;;;14.40;89.60;;;;;;5093981;28;20103;-82
2021/06/10 01:57:05;;;;;;;18.88;14.23;;;14.40;89.70;;;;;;5093799;28;20099;-82
2021/06/10 01:59:33;;;;;;;18.95;14.30;;;14.40;89.80;;;;;;5093774;28;20047;-82
2021/06/10 02:02:03;;;;;;;17.15;14.48;;;14.50;89.60;;;;;;5093899;28;20102;-82
2021/06/10 02:04:30;;;;;;;19.25;14.52;;;14.50;89.40;;;;;;5093756;28;20097;-82
2021/06/10 02:06:56;;;;;;;21.13;14.00;;;14.50;89.10;;;;;;5093796;28;20066;-82
2021/06/10 02:09:22;;;;;;;16.55;13.90;;;14.50;88.80;;;;;;5092442;28;20561;-81
2021/06/10 02:11:48;;;;;;;24.45;16.23;;;14.50;89.30;;;;;;5093435;28;20028;-82
2021/06/10 02:14:18;;;;;;;18.50;14.80;;;14.50;89.30;;;;;;5092332;28;20024;-82
2021/06/10 02:16:44;;;;;;;25.80;16.25;;;14.50;89.30;;;;;;5093252;28;20035;-81
2021/06/10 02:19:12;;;;;;;17.80;14.82;;;14.50;89.40;;;;;;5093009;28;20024;-82
2021/06/10 02:21:38;;;;;;;21.08;15.75;;;14.40;89.20;;;;;;5091982;28;20028;-82
2021/06/10 02:24:04;;;;;;;21.92;15.25;;;14.40;89.10;;;;;;5092162;28;20032;-82
2021/06/10 02:26:30;;;;;;;19.55;14.88;;;14.40;89.00;;;;;;5093215;28;20028;-82
2021/06/10 02:28:55;;;;;;;16.80;14.98;;;14.40;88.90;;;;;;5092125;28;20104;-84
2021/06/10 02:31:21;;;;;;;16.00;14.30;;;14.40;88.80;;;;;;5091900;28;20464;-82
2021/06/10 02:33:47;;;;;;;17.52;15.18;;;14.40;88.70;;;;;;5093052;28;20049;-84
2021/06/10 02:36:16;;;;;;;17.30;15.45;;;14.50;88.90;;;;;;5093288;28;20020;-84
2021/06/10 02:38:50;;;;;;;18.77;15.43;;;14.40;88.80;;;;;;5092787;28;20107;-83
2021/06/10 02:41:17;;;;;;;16.03;13.77;;;14.40;89.10;;;;;;5093276;28;20031;-83
2021/06/10 02:43:44;;;;;;;18.08;15.23;;;14.30;89.20;;;;;;5092997;28;20024;-83
2021/06/10 02:46:13;;;;;;;16.45;14.75;;;14.30;89.20;;;;;;5093615;28;20401;-84
2021/06/10 02:48:39;;;;;;;16.77;13.82;;;14.30;88.90;;;;;;5096321;28;20023;-81
2021/06/10 02:51:06;;;;;;;14.90;13.40;;;14.30;89.00;;;;;;5098906;28;20031;-82
2021/06/10 02:53:32;;;;;;;15.23;12.43;;;14.30;88.70;;;;;;5095338;28;20016;-82
2021/06/10 02:56:04;;;;;;;14.70;13.15;;;14.40;88.70;;;;;;5091912;28;20475;-81
2021/06/10 02:58:31;;;;;;;17.90;13.80;;;14.30;88.30;;;;;;5092736;28;20107;-81
2021/06/10 03:00:58;;;;;;;15.25;12.90;;;14.30;88.10;;;;;;5092737;28;20113;-81
2021/06/10 03:03:24;;;;;;;14.68;12.68;;;14.30;87.80;;;;;;5091362;28;20182;-81
2021/06/10 03:05:51;;;;;;;13.48;12.02;;;14.10;88.10;;;;;;5092944;28;20103;-81
2021/06/10 03:08:19;;;;;;;13.55;11.75;;;14.10;88.30;;;;;;5092528;28;20024;-81
2021/06/10 03:10:46;;;;;;;13.52;11.77;;;14.00;88.50;;;;;;5092913;28;20499;-82
2021/06/10 03:13:17;;;;;;;14.25;11.48;;;14.00;88.90;;;;;;5092763;28;20036;-82
2021/06/10 03:15:44;;;;;;;13.95;12.23;;;14.00;88.70;;;;;;5092659;28;20030;-82
2021/06/10 03:18:11;;;;;;;12.95;11.65;;;14.00;88.90;;;;;;5091252;28;20024;-82
2021/06/10 03:20:38;;;;;;;17.85;12.30;;;14.00;89.10;;;;;;5091108;28;20036;-82
2021/06/10 03:23:03;;;;;;;13.75;11.68;;;14.00;89.10;;;;;;5092827;28;20024;-82
2021/06/10 03:25:30;;;;;;;14.10;11.93;;;14.00;88.80;;;;;;5092545;28;20024;-82
2021/06/10 03:27:56;;;;;;;13.65;11.43;;;14.00;88.70;;;;;;5092599;28;20067;-82
2021/06/10 03:30:22;;;;;;;14.88;11.93;;;14.10;88.40;;;;;;5091309;28;20047;-82
2021/06/10 03:32:49;;;;;;;12.77;10.57;;;14.00;88.30;;;;;;5091299;28;20024;-82
2021/06/10 03:35:16;;;;;;;15.05;13.25;;;14.00;88.40;;;;;;5092340;28;20020;-82
2021/06/10 03:37:42;;;;;;;14.73;11.70;;;14.10;88.20;;;;;;5092344;28;20062;-82
2021/06/10 03:40:10;;;;;;;13.25;11.15;;;14.10;88.10;;;;;;5091197;28;20500;-81
2021/06/10 03:42:37;;;;;;;13.15;11.50;;;14.10;88.00;;;;;;5092282;28;20480;-82
2021/06/10 03:45:05;;;;;;;13.85;10.63;;;14.20;87.60;;;;;;5092482;28;20487;-83
2021/06/10 03:47:31;;;;;;;13.90;11.43;;;14.20;87.10;;;;;;5090790;28;20051;-84
2021/06/10 03:49:58;;;;;;;13.93;10.75;;;14.20;87.10;;;;;;5092514;28;20047;-82
2021/06/10 03:52:25;;;;;;;13.00;10.43;;;14.30;86.90;;;;;;5096365;28;20024;-82
2021/06/10 03:54:51;;;;;;;11.82;10.43;;;14.20;86.60;;;;;;5095096;28;20028;-82
2021/06/10 03:57:16;;;;;;;11.60;10.40;;;14.20;86.70;;;;;;5096206;28;20021;-82
2021/06/10 03:59:42;;;;;;;13.27;10.15;;;14.20;86.90;;;;;;5096192;28;20032;-82
2021/06/10 04:02:07;;;;;;;13.05;10.02;;;14.20;86.80;;;;;;5096253;28;20031;-82
2021/06/10 04:04:33;;;;;;;13.30;9.73;;;14.20;86.90;;;;;;5096191;28;20043;-82
2021/06/10 04:06:59;;;;;;;10.82;9.52;;;14.10;86.90;;;;;;5096021;28;20020;-82
2021/06/10 04:09:24;;;;;;;12.93;9.60;;;14.10;87.00;;;;;;5096057;28;20024;-82
2021/06/10 04:11:50;;;;;;;13.50;10.68;;;14.10;87.00;;;;;;5094688;28;20514;-82
2021/06/10 04:14:16;;;;;;;12.85;10.20;;;14.10;87.00;;;;;;5096128;28;20017;-82
2021/06/10 04:16:42;;;;;;;11.23;10.13;;;14.20;87.00;;;;;;5096006;28;20032;-82
2021/06/10 04:19:09;;;;;;;11.50;10.30;;;14.20;86.80;;;;;;5095680;28;20505;-82
2021/06/10 04:21:34;;;;;;;14.05;10.02;;;14.20;86.90;;;;;;5094982;28;20028;-82
2021/06/10 04:24:01;;;;;;;14.10;9.95;;;14.20;86.80;;;;;;5096050;28;20051;-82
2021/06/10 04:26:27;;;;;;;11.63;9.95;;;14.20;86.70;;;;;;5094333;28;20357;-82
2021/06/10 04:28:53;;;;;;;11.52;10.07;;;14.30;86.50;;;;;;5095690;28;20028;-82
2021/06/10 04:31:20;;;;;;;10.88;9.77;;;14.40;86.10;;;;;;5094334;28;20028;-82
2021/06/10 04:33:46;;;;;;;11.95;10.73;;;14.40;85.90;;;;;;5094129;28;20469;-83
2021/06/10 04:36:11;;;;;;;13.45;9.88;;;14.50;85.60;;;;;;5094155;28;20117;-80
2021/06/10 04:38:37;;;;;;;11.73;9.75;;;14.60;85.10;;;;;;5095488;28;20048;-82
2021/06/10 04:41:03;;;;;;;11.02;9.77;;;14.60;84.90;;;;;;5095503;28;20057;-82
2021/06/10 04:43:29;;;;;;;13.25;10.18;;;14.60;84.80;;;;;;5094637;28;20050;-81
2021/06/10 04:45:56;;;;;;;10.95;9.48;;;14.70;84.80;;;;;;5095691;28;20040;-81
2021/06/10 04:48:22;;;;;;;13.75;10.00;;;14.70;84.50;;;;;;5095581;28;20026;-81
2021/06/10 04:50:48;;;;;;;11.98;9.65;;;14.70;84.50;;;;;;5095676;28;20480;-81
2021/06/10 04:53:14;;;;;;;14.35;9.50;;;14.80;84.50;;;;;;5095639;28;20042;-81
2021/06/10 04:55:40;;;;;;;10.73;8.70;;;14.90;84.20;;;;;;5095064;28;20376;-81
2021/06/10 04:58:06;;;;;;;11.68;9.18;;;15.00;84.00;;;;;;5095243;28;20380;-81
2021/06/10 05:00:33;;;;;;;12.23;10.00;;;15.10;83.90;;;;;;5094292;28;20078;-81
2021/06/10 05:03:00;;;;;;;12.35;9.77;;;15.10;83.40;;;;;;5094251;28;20396;-81
2021/06/10 05:05:25;;;;;;;11.40;9.38;;;15.20;83.30;;;;;;5095294;28;20515;-81
2021/06/10 05:07:51;;;;;;;13.95;9.70;;;15.30;83.20;;;;;;5095349;28;20016;-81
2021/06/10 05:10:16;;;;;;;12.68;9.07;;;15.40;82.70;;;;;;5095170;28;20043;-81
2021/06/10 05:12:42;;;;;;;12.07;9.43;;;15.40;82.50;;;;;;5093818;28;20020;-82
2021/06/10 05:15:08;;;;;;;10.45;9.27;;;15.50;82.40;;;;;;5094133;28;20047;-82
2021/06/10 05:17:34;;;;;;;10.48;9.38;;;15.60;82.00;;;;;;5094559;28;20043;-82
2021/06/10 05:19:59;;;;;;;12.65;9.70;;;15.70;82.10;;;;;;5093873;28;20043;-83
2021/06/10 05:22:25;;;;;;;11.02;9.82;;;15.80;81.90;;;;;;5094880;28;20031;-82
2021/06/10 05:24:51;;;;;;;13.35;8.68;;;15.90;81.50;;;;;;5094779;28;20530;-83
2021/06/10 05:27:16;;;;;;;11.13;10.02;;;15.90;81.60;;;;;;5093411;28;20081;-81
2021/06/10 05:29:42;;;;;;;11.45;10.25;;;16.00;81.40;;;;;;5092470;28;20016;-82
2021/06/10 05:32:07;;;;;;;10.55;9.27;;;16.00;81.50;;;;;;5092803;28;20035;-82
2021/06/10 05:34:34;;;;;;;9.82;8.77;;;16.10;81.60;;;;;;5094182;28;20496;-81
2021/06/10 05:36:59;;;;;;;12.77;9.48;;;16.20;81.30;;;;;;5092704;28;20111;-82
2021/06/10 05:39:25;;;;;;;11.60;9.02;;;16.30;81.00;;;;;;5092982;28;20108;-82
2021/06/10 05:41:52;;;;;;;9.48;8.20;;;16.40;80.70;;;;;;5092975;28;20510;-81
2021/06/10 05:44:18;;;;;;;10.75;9.00;;;16.50;80.60;;;;;;5093331;28;20020;-85
2021/06/10 05:46:44;;;;;;;12.63;9.40;;;16.70;80.20;;;;;;5095135;28;20063;-82
2021/06/10 05:49:09;;;;;;;9.80;8.77;;;16.80;79.60;;;;;;5093066;28;20050;-81
2021/06/10 05:51:35;;;;;;;9.40;8.40;;;16.90;79.20;;;;;;5093062;28;20061;-82
2021/06/10 05:54:00;;;;;;;12.77;8.65;;;17.00;79.10;;;;;;5094254;28;20513;-81
2021/06/10 05:56:26;;;;;;;11.05;8.15;;;17.10;78.90;;;;;;5093870;28;20024;-81
2021/06/10 05:58:52;;;;;;;9.45;8.27;;;17.20;78.80;;;;;;5094419;28;20059;-84
2021/06/10 06:01:17;;;;;;;13.07;10.02;;;17.40;79.50;;;;;;5092700;28;20758;-83
2021/06/10 06:03:44;;;;;;;12.02;8.88;;;17.50;78.50;;;;;;5093223;28;20024;-85
2021/06/10 06:06:11;;;;;;;24.63;10.45;;;17.70;79.10;;;;;;5101555;28;20052;-86
2021/06/10 06:08:37;;;;;;;10.52;8.48;;;17.90;81.60;;;;;;5098233;28;20020;-86
2021/06/10 06:11:03;;;;;;;9.60;8.63;;;18.20;79.40;;;;;;5095554;28;20388;-86
2021/06/10 06:13:45;;;;;;;13.38;8.50;;;18.40;77.90;;;;;;5094244;28;20028;-85
2021/06/10 06:16:13;;;;;;;10.70;7.60;;;18.50;77.60;;;;;;5093253;28;20139;-84
2021/06/10 06:18:40;;;;;;;8.40;7.57;;;18.80;76.60;;;;;;5094530;28;20099;-86
2021/06/10 06:21:06;;;;;;;10.98;8.57;;;19.00;75.80;;;;;;5095099;28;20051;-86
2021/06/10 06:23:32;;;;;;;9.02;7.70;;;19.20;75.80;;;;;;5095850;28;20021;-88
2021/06/10 06:25:59;;;;;;;10.23;7.40;;;19.30;75.00;;;;;;5094969;28;20024;-88
2021/06/10 06:28:25;;;;;;;11.55;7.93;;;19.50;74.60;;;;;;5093293;28;20529;-86
2021/06/10 06:30:50;;;;;;;8.73;7.80;;;19.70;72.80;;;;;;5092684;28;20024;-84
2021/06/10 06:33:16;;;;;;;8.68;7.78;;;19.90;72.10;;;;;;5093759;28;20052;-85
2021/06/10 06:35:43;;;;;;;8.80;7.60;;;20.00;71.20;;;;;;5092421;28;20099;-84
2021/06/10 06:38:09;;;;;;;10.07;7.57;;;20.10;69.30;;;;;;5092461;28;20028;-82
2021/06/10 06:40:35;;;;;;;9.57;7.95;;;20.10;68.70;;;;;;5093639;28;20040;-83
2021/06/10 06:43:00;;;;;;;9.60;8.65;;;20.30;68.90;;;;;;5097720;28;20016;-83
2021/06/10 06:45:26;;;;;;;10.48;7.82;;;20.30;68.70;;;;;;5093525;28;20085;-83
2021/06/10 06:47:52;;;;;;;7.95;7.25;;;20.50;68.60;;;;;;5093661;28;20086;-84
2021/06/10 06:50:18;;;;;;;8.45;6.82;;;20.60;67.70;;;;;;5093145;28;20507;-84
2021/06/10 06:52:44;;;;;;;8.88;7.60;;;20.80;67.40;;;;;;5074895;28;20080;-82
2021/06/10 06:55:10;;;;;;;7.53;6.82;;;21.00;66.30;;;;;;5091986;28;20055;-82
2021/06/10 06:57:35;;;;;;;7.63;6.43;;;21.10;67.50;;;;;;5093175;28;20107;-83
2021/06/10 07:00:01;;;;;;;12.02;7.03;;;21.20;66.10;;;;;;5093699;28;20459;-88
2021/06/10 07:02:27;;;;;;;8.05;7.25;;;21.40;65.60;;;;;;5093668;28;20035;-87
2021/06/10 07:04:54;;;;;;;8.10;7.30;;;21.50;64.90;;;;;;5093428;28;20016;-83
2021/06/10 07:07:19;;;;;;;8.98;7.07;;;21.20;62.40;;;;;;5093050;28;20045;-86
2021/06/10 07:09:45;;;;;;;7.32;6.65;;;21.20;64.60;;;;;;5091806;28;20123;-87
2021/06/10 07:12:11;;;;;;;7.38;6.68;;;21.30;64.40;;;;;;5092143;28;20024;-84
2021/06/10 07:14:36;;;;;;;7.85;7.00;;;21.50;64.20;;;;;;5092014;28;20035;-87
2021/06/10 07:17:03;;;;;;;10.35;8.07;;;21.70;63.90;;;;;;5092748;28;20099;-79
2021/06/10 07:19:28;;;;;;;8.73;7.82;;;21.90;63.50;;;;;;5092704;28;20468;-79
2021/06/10 07:21:54;;;;;;;10.32;7.93;;;22.00;63.20;;;;;;5092656;28;20185;-79
2021/06/10 07:24:20;;;;;;;13.93;9.43;;;22.10;64.00;;;;;;5092041;28;20111;-79
2021/06/10 07:26:46;;;;;;;12.13;8.48;;;22.00;63.20;;;;;;5092937;28;20099;-79
2021/06/10 07:29:13;;;;;;;9.77;7.85;;;21.90;63.60;;;;;;5091555;28;20028;-78
2021/06/10 07:31:39;;;;;;;8.27;7.45;;;21.90;63.60;;;;;;5092842;28;20095;-78
2021/06/10 07:34:06;;;;;;;8.38;7.57;;;21.60;62.80;;;;;;5092753;28;20059;-78
2021/06/10 07:36:33;;;;;;;8.02;7.30;;;21.60;63.80;;;;;;5092557;28;20023;-79
2021/06/10 07:38:59;;;;;;;8.88;7.28;;;21.20;65.20;;;;;;5092630;28;20086;-79
2021/06/10 07:41:25;;;;;;;8.43;7.63;;;21.30;65.60;;;;;;5092928;28;20070;-78
2021/06/10 07:43:50;;;;;;;8.73;7.93;;;21.30;65.70;;;;;;5092820;28;20024;-78
2021/06/10 07:46:16;;;;;;;7.53;6.75;;;21.30;65.20;;;;;;5092392;28;20072;-78
2021/06/10 07:48:42;;;;;;;12.55;8.02;;;21.40;66.30;;;;;;5092784;28;20020;-78
2021/06/10 07:51:08;;;;;;;8.25;7.25;;;21.60;66.60;;;;;;5092454;28;20039;-78
2021/06/10 07:53:35;;;;;;;9.20;6.80;;;21.70;64.70;;;;;;5092649;28;20030;-78
2021/06/10 07:56:03;;;;;;;11.63;7.72;;;21.60;64.50;;;;;;5108305;28;20039;-78
2021/06/10 07:58:29;;;;;;;7.97;7.15;;;21.70;64.20;;;;;;5092553;28;20024;-78
2021/06/10 08:00:54;;;;;;;9.95;7.47;;;21.80;63.60;;;;;;5092465;28;20035;-78
2021/06/10 08:03:21;;;;;;;7.85;6.57;;;22.00;63.90;;;;;;5092599;28;20020;-78
2021/06/10 08:05:47;;;;;;;17.92;8.30;;;22.20;63.40;;;;;;5092621;28;20020;-79
2021/06/10 08:08:13;;;;;;;8.32;6.35;;;22.40;61.90;;;;;;5092633;28;20111;-78
2021/06/10 08:10:40;;;;;;;7.07;6.38;;;22.50;59.80;;;;;;5092491;28;20012;-79
2021/06/10 08:13:08;;;;;;;7.13;6.43;;;22.50;59.90;;;;;;5092448;28;20035;-79
2021/06/10 08:15:35;;;;;;;6.80;6.15;;;22.50;59.20;;;;;;5092408;28;20086;-79
2021/06/10 08:18:01;;;;;;;6.63;5.65;;;22.60;58.90;;;;;;5091925;28;20020;-79
2021/06/10 08:20:29;;;;;;;10.00;5.57;;;22.60;58.80;;;;;;5092197;28;20040;-79
2021/06/10 08:22:58;;;;;;;5.68;5.18;;;22.80;58.50;;;;;;5092722;28;20028;-78
2021/06/10 08:25:26;;;;;;;5.93;5.43;;;23.10;58.70;;;;;;5095501;28;20024;-77
2021/06/10 08:27:52;;;;;;;15.40;6.93;;;23.20;57.90;;;;;;5096141;28;20024;-78
2021/06/10 08:30:18;;;;;;;6.72;6.07;;;23.40;56.90;;;;;;5096280;28;20032;-78
2021/06/10 08:32:44;;;;;;;9.80;6.28;;;23.20;56.00;;;;;;5092789;28;20032;-77
2021/06/10 08:35:10;;;;;;;6.70;6.00;;;23.20;56.30;;;;;;5092436;28;20453;-77
2021/06/10 08:37:36;;;;;;;7.07;6.13;;;23.10;56.20;;;;;;5095621;28;20028;-77
2021/06/10 08:40:04;;;;;;;5.53;5.05;;;23.20;57.10;;;;;;5094837;28;20451;-77
2021/06/10 08:42:30;;;;;;;6.82;6.10;;;23.30;57.60;;;;;;5095662;28;20028;-78
2021/06/10 08:44:56;;;;;;;7.15;6.45;;;23.60;56.40;;;;;;5095638;28;20081;-77
2021/06/10 08:47:24;;;;;;;5.93;5.30;;;23.70;55.00;;;;;;5096505;28;20051;-78
2021/06/10 08:49:50;;;;;;;6.82;5.53;;;23.70;55.40;;;;;;5096336;28;20066;-78
2021/06/10 08:52:16;;;;;;;6.20;5.60;;;23.60;55.00;;;;;;5095454;28;20028;-78
2021/06/10 08:54:41;;;;;;;6.43;5.82;;;23.60;55.00;;;;;;5095214;28;20016;-78
2021/06/10 08:57:08;;;;;;;9.02;6.20;;;23.60;55.50;;;;;;5094893;28;20031;-78
2021/06/10 08:59:34;;;;;;;11.00;6.50;;;23.60;54.30;;;;;;5095327;28;20036;-79
2021/06/10 09:01:59;;;;;;;5.97;5.38;;;23.60;55.10;;;;;;5095128;28;20145;-79
2021/06/10 09:04:25;;;;;;;6.80;6.10;;;23.80;55.40;;;;;;5095458;28;20413;-78
2021/06/10 09:06:53;;;;;;;7.28;6.53;;;23.90;53.90;;;;;;5095085;28;20465;-78
2021/06/10 09:09:35;;;;;;;5.63;5.13;;;23.90;54.50;;;;;;5094647;28;20016;-78
2021/06/10 09:12:05;;;;;;;6.75;6.13;;;24.20;54.70;;;;;;5095358;28;20080;-79
2021/06/10 09:14:31;;;;;;;6.35;4.93;;;24.30;53.60;;;;;;5094226;28;20031;-79
2021/06/10 09:16:57;;;;;;;6.45;5.95;;;24.40;53.00;;;;;;5094066;28;20024;-79
2021/06/10 09:19:30;;;;;;;6.13;5.53;;;24.50;51.90;;;;;;5093964;28;20081;-79
2021/06/10 09:21:58;;;;;;;7.72;5.22;;;24.50;51.20;;;;;;5092849;28;20114;-78
2021/06/10 09:24:27;;;;;;;5.68;5.18;;;24.40;51.60;;;;;;5094265;28;20028;-79
2021/06/10 09:27:08;;;;;;;4.90;4.50;;;24.40;51.70;;;;;;5094268;28;20073;-78
2021/06/10 09:29:39;;;;;;;5.60;5.07;;;24.30;52.00;;;;;;5094405;28;20525;-79
2021/06/10 09:32:13;;;;;;;5.03;4.60;;;24.10;52.80;;;;;;5094669;28;20073;-78
2021/06/10 09:34:44;;;;;;;7.20;4.83;;;24.10;53.10;;;;;;5094704;28;20025;-78
2021/06/10 09:37:12;;;;;;;6.18;5.57;;;24.20;55.10;;;;;;5094729;28;20457;-78
2021/06/10 09:39:50;;;;;;;7.03;5.10;;;24.20;54.50;;;;;;5094483;28;20025;-79
2021/06/10 09:42:21;;;;;;;5.57;5.07;;;24.30;54.40;;;;;;5094707;28;20081;-78
2021/06/10 09:44:48;;;;;;;6.85;5.72;;;24.30;52.60;;;;;;5094599;28;20028;-78
2021/06/10 09:47:16;;;;;;;6.72;5.82;;;24.60;51.60;;;;;;5093575;28;20551;-78
2021/06/10 09:49:42;;;;;;;5.70;5.10;;;24.80;51.70;;;;;;5094698;28;20028;-78
2021/06/10 09:52:07;;;;;;;5.82;5.25;;;25.00;50.00;;;;;;5095407;28;20050;-78
2021/06/10 09:54:45;;;;;;;5.50;4.78;;;24.90;48.20;;;;;;5102453;28;20020;-78
2021/06/10 09:57:15;;;;;;;5.70;5.20;;;25.10;48.70;;;;;;5104930;28;20030;-78
2021/06/10 09:59:54;;;;;;;5.28;4.78;;;25.30;48.60;;;;;;5097552;28;20107;-78
2021/06/10 10:02:21;;;;;;;5.00;4.57;;;25.20;47.30;;;;;;5094485;28;20032;-79
2021/06/10 10:05:03;;;;;;;5.15;4.72;;;25.30;47.30;;;;;;5094219;28;20062;-79
2021/06/10 10:07:31;;;;;;;5.63;5.00;;;25.40;47.80;;;;;;5094198;28;20055;-78
2021/06/10 10:09:59;;;;;;;5.63;5.15;;;25.50;48.40;;;;;;5094081;28;20028;-79
2021/06/10 10:12:26;;;;;;;5.22;4.75;;;25.60;47.50;;;;;;5093994;28;20028;-78
2021/06/10 10:14:54;;;;;;;5.40;4.90;;;25.80;47.60;;;;;;5093749;28;20020;-79
2021/06/10 10:17:21;;;;;;;7.97;5.30;;;26.10;47.40;;;;;;5093661;28;20028;-79
2021/06/10 10:19:47;;;;;;;5.90;4.75;;;26.00;47.30;;;;;;5093742;28;20376;-78
2021/06/10 10:22:13;;;;;;;7.05;5.40;;;26.20;46.40;;;;;;5093612;28;20016;-78
2021/06/10 10:24:39;;;;;;;4.45;4.10;;;26.10;45.60;;;;;;5093394;28;20089;-78
2021/06/10 10:27:10;;;;;;;5.25;4.53;;;26.20;44.20;;;;;;5093369;28;20058;-78
2021/06/10 10:29:41;;;;;;;5.45;4.95;;;26.30;44.90;;;;;;5093672;28;20035;-78
2021/06/10 10:32:08;;;;;;;4.60;4.15;;;26.40;44.10;;;;;;5093271;28;20026;-77
2021/06/10 10:34:35;;;;;;;4.80;4.30;;;26.50;42.80;;;;;;5093192;28;20126;-77
2021/06/10 10:37:18;;;;;;;4.38;4.03;;;26.40;43.20;;;;;;5093006;28;20063;-77
2021/06/10 10:39:45;;;;;;;4.85;4.35;;;26.20;42.10;;;;;;5094226;28;20032;-77
2021/06/10 10:42:25;;;;;;;4.55;4.13;;;26.10;42.40;;;;;;5091444;28;20468;-78
2021/06/10 10:45:09;;;;;;;5.22;3.88;;;26.10;43.10;;;;;;5093268;28;20028;-78
2021/06/10 10:47:47;;;;;;;4.78;4.22;;;26.20;43.80;;;;;;5093114;28;20450;-78
2021/06/10 10:50:19;;;;;;;5.22;4.22;;;26.30;42.50;;;;;;5093230;28;20028;-78
2021/06/10 10:52:55;;;;;;;4.18;3.78;;;26.30;42.00;;;;;;5091795;28;20130;-78
2021/06/10 10:55:30;;;;;;;4.70;4.03;;;26.20;42.00;;;;;;5093143;28;20412;-79
2021/06/10 10:58:19;;;;;;;4.28;3.80;;;26.00;42.20;;;;;;5092961;28;20024;-79
2021/06/10 11:00:45;;;;;;;4.68;3.97;;;26.20;42.20;;;;;;5087705;28;20044;-79
2021/06/10 11:03:35;;;;;;;4.15;3.72;;;26.50;41.90;;;;;;5093305;28;20028;-78
2021/06/10 11:06:21;;;;;;;6.03;4.15;;;26.60;41.40;;;;;;5093150;28;20024;-78
2021/06/10 11:09:13;;;;;;;5.68;3.85;;;26.90;40.90;;;;;;5092873;28;20020;-78
2021/06/10 11:11:49;;;;;;;3.85;3.55;;;27.30;40.10;;;;;;5092815;28;20366;-78
2021/06/10 11:14:34;;;;;;;4.28;3.88;;;27.60;39.30;;;;;;5092901;28;20042;-77
2021/06/10 11:17:42;;;;;;;5.55;4.10;;;27.90;38.20;;;;;;5093028;28;20016;-78
2021/06/10 11:20:11;;;;;;;6.07;4.63;;;27.90;37.40;;;;;;5072939;28;20136;-78
2021/06/10 11:22:41;;;;;;;4.55;4.22;;;27.60;40.60;;;;;;5092937;28;20074;-78
2021/06/10 11:25:26;;;;;;;4.57;3.97;;;27.90;40.40;;;;;;5093558;28;20024;-77
2021/06/10 11:27:56;;;;;;;3.60;3.30;;;28.30;40.30;;;;;;5092770;28;20113;-79
2021/06/10 11:30:22;;;;;;;4.88;4.47;;;28.30;38.80;;;;;;5092798;28;20488;-77
2021/06/10 11:33:03;;;;;;;5.70;4.07;;;28.00;38.70;;;;;;5092874;28;20035;-79
2021/06/10 11:35:42;;;;;;;4.63;4.05;;;27.40;39.00;;;;;;5093196;28;20020;-81
2021/06/10 11:38:18;;;;;;;4.68;4.28;;;26.70;40.00;;;;;;5092910;28;20027;-80
2021/06/10 11:40:49;;;;;;;4.97;4.57;;;26.10;41.70;;;;;;5092785;28;20388;-80
2021/06/10 11:43:16;;;;;;;4.47;4.07;;;25.60;42.10;;;;;;5092715;28;20464;-80
2021/06/10 11:45:46;;;;;;;5.35;4.60;;;25.50;43.20;;;;;;5092641;28;20044;-79
2021/06/10 11:48:12;;;;;;;4.80;4.40;;;25.40;44.10;;;;;;5092970;28;20099;-79
2021/06/10 11:50:40;;;;;;;5.57;4.38;;;25.40;44.90;;;;;;5093713;28;20107;-79
2021/06/10 11:53:17;;;;;;;6.95;4.95;;;25.50;45.50;;;;;;5092824;28;20028;-79
2021/06/10 11:55:44;;;;;;;6.43;4.47;;;25.50;44.70;;;;;;5092479;28;20480;-78
2021/06/10 11:58:12;;;;;;;6.75;4.47;;;25.30;45.10;;;;;;5092713;28;20181;-79
2021/06/10 12:00:40;;;;;;;5.13;4.72;;;25.20;45.40;;;;;;5092445;28;20028;-79
2021/06/10 12:03:09;;;;;;;5.00;4.25;;;25.10;46.10;;;;;;5092598;28;20027;-79
2021/06/10 12:05:43;;;;;;;5.30;4.80;;;25.10;46.40;;;;;;5092538;28;20059;-78
2021/06/10 12:08:15;;;;;;;5.22;4.70;;;24.90;46.20;;;;;;5091339;28;20393;-78
2021/06/10 12:10:46;;;;;;;6.18;5.18;;;24.80;46.20;;;;;;5093432;28;20020;-79
2021/06/10 12:13:11;;;;;;;6.25;5.07;;;24.60;47.10;;;;;;5096570;28;20021;-78
2021/06/10 12:15:41;;;;;;;8.38;5.97;;;24.50;47.10;;;;;;5096540;28;20027;-78
2021/06/10 12:18:09;;;;;;;8.07;6.78;;;24.60;47.00;;;;;;5096377;28;20353;-78
2021/06/10 12:20:40;;;;;;;8.43;7.43;;;24.30;49.90;;;;;;5097530;28;20124;-77
2021/06/10 12:23:23;;;;;;;8.27;7.40;;;24.10;55.60;;;;;;5099403;28;20024;-78
2021/06/10 12:25:51;;;;;;;13.77;7.35;;;23.80;56.00;;;;;;5100275;28;20021;-77
2021/06/10 12:28:26;;;;;;;7.00;6.30;;;23.80;57.20;;;;;;5101940;28;20464;-77
2021/06/10 12:31:05;;;;;;;6.97;5.93;;;23.80;53.20;;;;;;5100859;28;20024;-78
2021/06/10 12:33:33;;;;;;;7.78;5.97;;;24.00;53.90;;;;;;5104312;28;20125;-78
2021/06/10 12:35:59;;;;;;;8.63;7.13;;;24.20;54.10;;;;;;5104028;28;20384;-78
2021/06/10 12:38:36;;;;;;;8.88;7.00;;;24.30;53.50;;;;;;5102951;28;20032;-79
2021/06/10 12:41:26;;;;;;;11.40;8.20;;;24.20;54.10;;;;;;5096102;28;20396;-78
2021/06/10 12:44:03;;;;;;;8.07;6.88;;;24.20;54.10;;;;;;5095644;28;20074;-78